sensor_id;sensor_type;location;lat;lon;timestamp;temperature;humidity
71514;DHT22;59335;46.652;21.272;2022-11-20T00:00:30;22.47;39.54
71514;DHT22;59335;46.652;21.272;2022-11-20T00:03:33;22.46;39.59
71514;DHT22;59335;46.652;21.272;2022-11-20T00:06:35;22.47;39.56
71514;DHT22;59335;46.652;21.272;2022-11-20T00:09:38;22.47;39.62
71514;DHT22;59335;46.652;21.272;2022-11-20T00:12:41;22.48;39.56
71514;DHT22;59335;46.652;21.272;2022-11-20T00:15:43;22.44;39.58
71514;DHT22;59335;46.652;21.272;2022-11-20T00:18:46;22.46;39.52
71514;DHT22;59335;46.652;21.272;2022-11-20T00:21:49;22.50;39.54
71514;DHT22;59335;46.652;21.272;2022-11-20T00:24:53;22.50;39.54
71514;DHT22;59335;46.652;21.272;2022-11-20T00:27:56;22.50;39.54
71514;DHT22;59335;46.652;21.272;2022-11-20T00:31:07;22.48;39.59
71514;DHT22;59335;46.652;21.272;2022-11-20T00:34:09;22.48;39.55
71514;DHT22;59335;46.652;21.272;2022-11-20T00:37:12;22.50;39.50
71514;DHT22;59335;46.652;21.272;2022-11-20T00:40:15;22.48;39.63
71514;DHT22;59335;46.652;21.272;2022-11-20T00:43:17;22.48;39.63
71514;DHT22;59335;46.652;21.272;2022-11-20T00:46:25;22.48;39.62
71514;DHT22;59335;46.652;21.272;2022-11-20T00:49:28;22.48;39.65
71514;DHT22;59335;46.652;21.272;2022-11-20T00:52:30;22.44;39.60
71514;DHT22;59335;46.652;21.272;2022-11-20T00:55:33;22.50;39.67
71514;DHT22;59335;46.652;21.272;2022-11-20T00:58:38;22.46;39.70
71514;DHT22;59335;46.652;21.272;2022-11-20T01:01:41;22.48;39.66
71514;DHT22;59335;46.652;21.272;2022-11-20T01:04:43;22.47;39.69
71514;DHT22;59335;46.652;21.272;2022-11-20T01:07:46;22.48;39.70
71514;DHT22;59335;46.652;21.272;2022-11-20T01:10:49;22.44;39.66
71514;DHT22;59335;46.652;21.272;2022-11-20T01:13:52;22.46;39.70
71514;DHT22;59335;46.652;21.272;2022-11-20T01:16:55;22.48;39.70
71514;DHT22;59335;46.652;21.272;2022-11-20T01:19:58;22.48;39.68
71514;DHT22;59335;46.652;21.272;2022-11-20T01:23:00;22.47;39.70
71514;DHT22;59335;46.652;21.272;2022-11-20T01:26:04;22.47;39.72
71514;DHT22;59335;46.652;21.272;2022-11-20T01:29:12;22.46;39.67
71514;DHT22;59335;46.652;21.272;2022-11-20T01:32:15;22.47;39.70
71514;DHT22;59335;46.652;21.272;2022-11-20T01:35:17;22.48;39.72
71514;DHT22;59335;46.652;21.272;2022-11-20T01:38:20;22.48;39.67
71514;DHT22;59335;46.652;21.272;2022-11-20T01:41:26;22.47;39.72
71514;DHT22;59335;46.652;21.272;2022-11-20T01:44:55;22.47;39.64
71514;DHT22;59335;46.652;21.272;2022-11-20T01:47:58;22.46;39.67
71514;DHT22;59335;46.652;21.272;2022-11-20T01:51:02;22.44;39.59
71514;DHT22;59335;46.652;21.272;2022-11-20T01:54:09;22.46;39.63
71514;DHT22;59335;46.652;21.272;2022-11-20T01:57:15;22.47;39.63
71514;DHT22;59335;46.652;21.272;2022-11-20T02:00:19;22.46;39.59
71514;DHT22;59335;46.652;21.272;2022-11-20T02:03:22;22.44;39.52
71514;DHT22;59335;46.652;21.272;2022-11-20T02:06:29;22.44;39.53
71514;DHT22;59335;46.652;21.272;2022-11-20T02:09:34;22.46;39.54
71514;DHT22;59335;46.652;21.272;2022-11-20T02:12:36;22.44;39.59
71514;DHT22;59335;46.652;21.272;2022-11-20T02:15:57;22.46;39.56
71514;DHT22;59335;46.652;21.272;2022-11-20T02:19:02;22.46;39.63
71514;DHT22;59335;46.652;21.272;2022-11-20T02:22:17;22.47;39.56
71514;DHT22;59335;46.652;21.272;2022-11-20T02:25:21;22.44;39.60
71514;DHT22;59335;46.652;21.272;2022-11-20T02:28:25;22.43;39.60
71514;DHT22;59335;46.652;21.272;2022-11-20T02:31:28;22.46;39.57
71514;DHT22;59335;46.652;21.272;2022-11-20T02:34:31;22.46;39.54
71514;DHT22;59335;46.652;21.272;2022-11-20T02:37:36;22.46;39.58
71514;DHT22;59335;46.652;21.272;2022-11-20T02:40:40;22.46;39.59
71514;DHT22;59335;46.652;21.272;2022-11-20T02:43:42;22.44;39.54
71514;DHT22;59335;46.652;21.272;2022-11-20T02:46:45;22.44;39.49
71514;DHT22;59335;46.652;21.272;2022-11-20T02:49:49;22.46;39.51
71514;DHT22;59335;46.652;21.272;2022-11-20T02:52:51;22.47;39.49
71514;DHT22;59335;46.652;21.272;2022-11-20T02:55:54;22.44;39.45
71514;DHT22;59335;46.652;21.272;2022-11-20T02:58:57;22.44;39.45
71514;DHT22;59335;46.652;21.272;2022-11-20T03:02:00;22.46;39.45
71514;DHT22;59335;46.652;21.272;2022-11-20T03:05:03;22.46;39.51
71514;DHT22;59335;46.652;21.272;2022-11-20T03:08:05;22.47;39.55
71514;DHT22;59335;46.652;21.272;2022-11-20T03:11:08;22.47;39.47
71514;DHT22;59335;46.652;21.272;2022-11-20T03:14:11;22.47;39.54
71514;DHT22;59335;46.652;21.272;2022-11-20T03:17:15;22.44;39.53
71514;DHT22;59335;46.652;21.272;2022-11-20T03:20:18;22.43;39.54
71514;DHT22;59335;46.652;21.272;2022-11-20T03:23:20;22.46;39.54
71514;DHT22;59335;46.652;21.272;2022-11-20T03:26:25;22.43;39.56
71514;DHT22;59335;46.652;21.272;2022-11-20T03:29:28;22.43;39.53
71514;DHT22;59335;46.652;21.272;2022-11-20T03:32:31;22.44;39.54
71514;DHT22;59335;46.652;21.272;2022-11-20T03:35:33;22.44;39.50
71514;DHT22;59335;46.652;21.272;2022-11-20T03:38:36;22.46;39.49
71514;DHT22;59335;46.652;21.272;2022-11-20T03:41:41;22.43;39.45
71514;DHT22;59335;46.652;21.272;2022-11-20T03:44:44;22.46;39.48
71514;DHT22;59335;46.652;21.272;2022-11-20T03:47:46;22.44;39.49
71514;DHT22;59335;46.652;21.272;2022-11-20T03:50:49;22.44;39.50
71514;DHT22;59335;46.652;21.272;2022-11-20T03:53:54;22.43;39.52
71514;DHT22;59335;46.652;21.272;2022-11-20T03:56:57;22.44;39.44
71514;DHT22;59335;46.652;21.272;2022-11-20T03:59:59;22.46;39.42
71514;DHT22;59335;46.652;21.272;2022-11-20T04:03:05;22.43;39.49
71514;DHT22;59335;46.652;21.272;2022-11-20T04:06:10;22.47;39.48
71514;DHT22;59335;46.652;21.272;2022-11-20T04:09:13;22.46;39.48
71514;DHT22;59335;46.652;21.272;2022-11-20T04:12:16;22.44;39.51
71514;DHT22;59335;46.652;21.272;2022-11-20T04:15:18;22.44;39.46
71514;DHT22;59335;46.652;21.272;2022-11-20T04:18:21;22.46;39.49
71514;DHT22;59335;46.652;21.272;2022-11-20T04:21:24;22.44;39.45
71514;DHT22;59335;46.652;21.272;2022-11-20T04:24:27;22.44;39.42
71514;DHT22;59335;46.652;21.272;2022-11-20T04:27:30;22.46;39.49
71514;DHT22;59335;46.652;21.272;2022-11-20T04:30:33;22.46;39.45
71514;DHT22;59335;46.652;21.272;2022-11-20T04:33:36;22.43;39.41
71514;DHT22;59335;46.652;21.272;2022-11-20T04:36:39;22.41;39.41
71514;DHT22;59335;46.652;21.272;2022-11-20T04:39:42;22.41;39.47
71514;DHT22;59335;46.652;21.272;2022-11-20T04:42:44;22.46;39.45
71514;DHT22;59335;46.652;21.272;2022-11-20T04:45:54;22.44;39.45
71514;DHT22;59335;46.652;21.272;2022-11-20T04:48:57;22.46;39.46
71514;DHT22;59335;46.652;21.272;2022-11-20T04:51:59;22.41;39.49
71514;DHT22;59335;46.652;21.272;2022-11-20T04:55:02;22.46;39.48
71514;DHT22;59335;46.652;21.272;2022-11-20T04:58:05;22.47;39.45
71514;DHT22;59335;46.652;21.272;2022-11-20T05:01:13;22.44;39.46
71514;DHT22;59335;46.652;21.272;2022-11-20T05:04:17;22.44;39.48
71514;DHT22;59335;46.652;21.272;2022-11-20T05:07:19;22.44;39.45
71514;DHT22;59335;46.652;21.272;2022-11-20T05:10:22;22.46;39.47
71514;DHT22;59335;46.652;21.272;2022-11-20T05:13:24;22.46;39.52
71514;DHT22;59335;46.652;21.272;2022-11-20T05:16:27;22.47;39.48
71514;DHT22;59335;46.652;21.272;2022-11-20T05:19:29;22.44;39.43
71514;DHT22;59335;46.652;21.272;2022-11-20T05:22:32;22.46;39.45
71514;DHT22;59335;46.652;21.272;2022-11-20T05:25:37;22.47;39.45
71514;DHT22;59335;46.652;21.272;2022-11-20T05:28:40;22.44;39.48
71514;DHT22;59335;46.652;21.272;2022-11-20T05:31:43;22.44;39.44
71514;DHT22;59335;46.652;21.272;2022-11-20T05:34:45;22.46;39.41
71514;DHT22;59335;46.652;21.272;2022-11-20T05:37:48;22.46;39.35
71514;DHT22;59335;46.652;21.272;2022-11-20T05:40:50;22.46;39.41
71514;DHT22;59335;46.652;21.272;2022-11-20T05:43:53;22.44;39.36
71514;DHT22;59335;46.652;21.272;2022-11-20T05:46:55;22.46;39.37
71514;DHT22;59335;46.652;21.272;2022-11-20T05:49:58;22.46;39.41
71514;DHT22;59335;46.652;21.272;2022-11-20T05:53:01;22.44;39.36
71514;DHT22;59335;46.652;21.272;2022-11-20T05:56:09;22.44;39.37
71514;DHT22;59335;46.652;21.272;2022-11-20T05:59:15;22.46;39.38
71514;DHT22;59335;46.652;21.272;2022-11-20T06:02:18;22.41;39.37
71514;DHT22;59335;46.652;21.272;2022-11-20T06:05:21;22.43;39.35
71514;DHT22;59335;46.652;21.272;2022-11-20T06:08:23;22.43;39.37
71514;DHT22;59335;46.652;21.272;2022-11-20T06:11:26;22.43;39.31
71514;DHT22;59335;46.652;21.272;2022-11-20T06:14:28;22.44;39.31
71514;DHT22;59335;46.652;21.272;2022-11-20T06:17:31;22.44;39.34
71514;DHT22;59335;46.652;21.272;2022-11-20T06:20:33;22.43;39.27
71514;DHT22;59335;46.652;21.272;2022-11-20T06:23:44;22.44;39.30
71514;DHT22;59335;46.652;21.272;2022-11-20T06:26:47;22.44;39.28
71514;DHT22;59335;46.652;21.272;2022-11-20T06:29:50;22.44;39.22
71514;DHT22;59335;46.652;21.272;2022-11-20T06:32:52;22.46;39.31
71514;DHT22;59335;46.652;21.272;2022-11-20T06:35:59;22.44;39.27
71514;DHT22;59335;46.652;21.272;2022-11-20T06:39:08;22.44;39.19
71514;DHT22;59335;46.652;21.272;2022-11-20T06:42:11;22.43;39.24
71514;DHT22;59335;46.652;21.272;2022-11-20T06:45:13;22.41;39.21
71514;DHT22;59335;46.652;21.272;2022-11-20T06:48:16;22.44;39.18
71514;DHT22;59335;46.652;21.272;2022-11-20T06:51:18;22.43;39.22
71514;DHT22;59335;46.652;21.272;2022-11-20T06:54:21;22.44;39.18
71514;DHT22;59335;46.652;21.272;2022-11-20T06:57:23;22.44;39.19
71514;DHT22;59335;46.652;21.272;2022-11-20T07:00:26;22.41;39.12
71514;DHT22;59335;46.652;21.272;2022-11-20T07:03:28;22.43;39.10
71514;DHT22;59335;46.652;21.272;2022-11-20T07:06:31;22.43;39.11
71514;DHT22;59335;46.652;21.272;2022-11-20T07:09:34;22.40;39.14
71514;DHT22;59335;46.652;21.272;2022-11-20T07:12:37;22.46;39.08
71514;DHT22;59335;46.652;21.272;2022-11-20T07:15:39;22.43;39.14
71514;DHT22;59335;46.652;21.272;2022-11-20T07:18:42;22.43;39.17
71514;DHT22;59335;46.652;21.272;2022-11-20T07:21:51;22.44;39.07
71514;DHT22;59335;46.652;21.272;2022-11-20T07:24:54;22.44;39.11
71514;DHT22;59335;46.652;21.272;2022-11-20T07:28:00;22.43;39.07
71514;DHT22;59335;46.652;21.272;2022-11-20T07:31:03;22.44;39.11
71514;DHT22;59335;46.652;21.272;2022-11-20T07:34:07;22.43;39.10
71514;DHT22;59335;46.652;21.272;2022-11-20T07:37:09;22.44;39.07
71514;DHT22;59335;46.652;21.272;2022-11-20T07:40:16;22.44;39.04
71514;DHT22;59335;46.652;21.272;2022-11-20T07:43:19;22.44;39.00
71514;DHT22;59335;46.652;21.272;2022-11-20T07:46:21;22.44;39.00
71514;DHT22;59335;46.652;21.272;2022-11-20T07:49:24;22.43;39.03
71514;DHT22;59335;46.652;21.272;2022-11-20T07:52:28;22.43;39.03
71514;DHT22;59335;46.652;21.272;2022-11-20T07:55:31;22.43;39.04
71514;DHT22;59335;46.652;21.272;2022-11-20T07:58:34;22.41;39.07
71514;DHT22;59335;46.652;21.272;2022-11-20T08:01:38;22.43;39.04
71514;DHT22;59335;46.652;21.272;2022-11-20T08:04:40;22.46;39.06
71514;DHT22;59335;46.652;21.272;2022-11-20T08:07:43;22.43;39.04
71514;DHT22;59335;46.652;21.272;2022-11-20T08:10:46;22.44;39.04
71514;DHT22;59335;46.652;21.272;2022-11-20T08:13:48;22.44;39.04
71514;DHT22;59335;46.652;21.272;2022-11-20T08:17:09;22.46;39.03
71514;DHT22;59335;46.652;21.272;2022-11-20T08:20:12;22.43;39.10
71514;DHT22;59335;46.652;21.272;2022-11-20T08:23:15;22.44;39.15
71514;DHT22;59335;46.652;21.272;2022-11-20T08:26:17;22.44;39.12
71514;DHT22;59335;46.652;21.272;2022-11-20T08:29:20;22.46;39.15
71514;DHT22;59335;46.652;21.272;2022-11-20T08:32:25;22.46;39.11
71514;DHT22;59335;46.652;21.272;2022-11-20T08:35:28;22.44;39.17
71514;DHT22;59335;46.652;21.272;2022-11-20T08:38:31;22.44;39.20
71514;DHT22;59335;46.652;21.272;2022-11-20T08:41:34;22.46;39.21
71514;DHT22;59335;46.652;21.272;2022-11-20T08:44:37;22.43;39.16
71514;DHT22;59335;46.652;21.272;2022-11-20T08:47:39;22.44;39.14
71514;DHT22;59335;46.652;21.272;2022-11-20T08:50:43;22.46;39.20
71514;DHT22;59335;46.652;21.272;2022-11-20T08:53:45;22.46;39.21
71514;DHT22;59335;46.652;21.272;2022-11-20T08:56:48;22.46;39.25
71514;DHT22;59335;46.652;21.272;2022-11-20T08:59:51;22.46;39.25
71514;DHT22;59335;46.652;21.272;2022-11-20T09:03:08;22.48;39.22
71514;DHT22;59335;46.652;21.272;2022-11-20T09:06:11;22.44;39.34
71514;DHT22;59335;46.652;21.272;2022-11-20T09:09:14;22.46;39.27
71514;DHT22;59335;46.652;21.272;2022-11-20T09:12:16;22.46;39.28
71514;DHT22;59335;46.652;21.272;2022-11-20T09:15:19;22.46;39.31
71514;DHT22;59335;46.652;21.272;2022-11-20T09:18:22;22.48;39.33
71514;DHT22;59335;46.652;21.272;2022-11-20T09:21:25;22.47;39.43
71514;DHT22;59335;46.652;21.272;2022-11-20T09:24:27;22.46;39.35
71514;DHT22;59335;46.652;21.272;2022-11-20T09:27:30;22.47;39.40
71514;DHT22;59335;46.652;21.272;2022-11-20T09:30:33;22.47;39.37
71514;DHT22;59335;46.652;21.272;2022-11-20T09:33:35;22.47;39.42
71514;DHT22;59335;46.652;21.272;2022-11-20T09:36:38;22.47;39.41
71514;DHT22;59335;46.652;21.272;2022-11-20T09:39:42;22.48;39.45
71514;DHT22;59335;46.652;21.272;2022-11-20T09:46:23;22.47;39.48
71514;DHT22;59335;46.652;21.272;2022-11-20T09:49:56;22.47;39.49
71514;DHT22;59335;46.652;21.272;2022-11-20T09:57:03;22.48;39.52
71514;DHT22;59335;46.652;21.272;2022-11-20T10:00:10;22.47;39.55
71514;DHT22;59335;46.652;21.272;2022-11-20T10:03:23;22.48;39.47
71514;DHT22;59335;46.652;21.272;2022-11-20T10:06:31;22.48;39.58
71514;DHT22;59335;46.652;21.272;2022-11-20T10:09:37;22.50;39.55
71514;DHT22;59335;46.652;21.272;2022-11-20T10:12:47;22.48;39.52
71514;DHT22;59335;46.652;21.272;2022-11-20T10:16:06;22.48;39.53
71514;DHT22;59335;46.652;21.272;2022-11-20T10:22:47;22.50;39.47
71514;DHT22;59335;46.652;21.272;2022-11-20T10:25:57;22.48;39.53
71514;DHT22;59335;46.652;21.272;2022-11-20T10:29:32;22.48;39.57
71514;DHT22;59335;46.652;21.272;2022-11-20T10:32:59;22.51;39.50
71514;DHT22;59335;46.652;21.272;2022-11-20T10:36:23;22.47;39.52
71514;DHT22;59335;46.652;21.272;2022-11-20T10:42:53;22.50;39.54
71514;DHT22;59335;46.652;21.272;2022-11-20T10:46:10;22.51;39.57
71514;DHT22;59335;46.652;21.272;2022-11-20T10:49:18;22.50;39.62
71514;DHT22;59335;46.652;21.272;2022-11-20T10:55:47;22.48;39.69
71514;DHT22;59335;46.652;21.272;2022-11-20T11:02:48;22.53;39.72
71514;DHT22;59335;46.652;21.272;2022-11-20T11:06:22;22.53;39.63
71514;DHT22;59335;46.652;21.272;2022-11-20T11:09:32;22.53;39.58
71514;DHT22;59335;46.652;21.272;2022-11-20T11:12:36;22.53;39.69
71514;DHT22;59335;46.652;21.272;2022-11-20T11:15:40;22.53;39.68
71514;DHT22;59335;46.652;21.272;2022-11-20T11:18:43;22.53;39.64
71514;DHT22;59335;46.652;21.272;2022-11-20T11:21:55;22.55;39.70
71514;DHT22;59335;46.652;21.272;2022-11-20T11:24:59;22.53;39.71
71514;DHT22;59335;46.652;21.272;2022-11-20T11:28:20;22.54;39.79
71514;DHT22;59335;46.652;21.272;2022-11-20T11:31:34;22.53;39.74
71514;DHT22;59335;46.652;21.272;2022-11-20T11:34:37;22.51;39.63
71514;DHT22;59335;46.652;21.272;2022-11-20T11:37:40;22.53;39.74
71514;DHT22;59335;46.652;21.272;2022-11-20T11:40:43;22.55;39.67
71514;DHT22;59335;46.652;21.272;2022-11-20T11:43:55;22.55;39.71
71514;DHT22;59335;46.652;21.272;2022-11-20T11:47:23;22.57;39.70
71514;DHT22;59335;46.652;21.272;2022-11-20T11:50:28;22.55;39.63
71514;DHT22;59335;46.652;21.272;2022-11-20T11:53:31;22.53;39.70
71514;DHT22;59335;46.652;21.272;2022-11-20T11:56:34;22.55;39.75
71514;DHT22;59335;46.652;21.272;2022-11-20T12:06:58;22.58;39.71
71514;DHT22;59335;46.652;21.272;2022-11-20T12:13:55;22.57;39.84
71514;DHT22;59335;46.652;21.272;2022-11-20T12:16:58;22.57;39.80
71514;DHT22;59335;46.652;21.272;2022-11-20T12:20:00;22.55;39.84
71514;DHT22;59335;46.652;21.272;2022-11-20T12:23:27;22.58;39.73
71514;DHT22;59335;46.652;21.272;2022-11-20T12:26:45;22.57;39.82
71514;DHT22;59335;46.652;21.272;2022-11-20T12:33:54;22.58;39.92
71514;DHT22;59335;46.652;21.272;2022-11-20T12:37:11;22.58;39.80
71514;DHT22;59335;46.652;21.272;2022-11-20T12:43:23;22.58;39.84
71514;DHT22;59335;46.652;21.272;2022-11-20T12:46:49;22.55;39.85
71514;DHT22;59335;46.652;21.272;2022-11-20T13:00:14;22.58;39.96
71514;DHT22;59335;46.652;21.272;2022-11-20T13:06:40;22.57;39.98
71514;DHT22;59335;46.652;21.272;2022-11-20T13:09:46;22.57;39.95
71514;DHT22;59335;46.652;21.272;2022-11-20T13:13:03;22.57;40.04
71514;DHT22;59335;46.652;21.272;2022-11-20T13:16:38;22.55;39.99
71514;DHT22;59335;46.652;21.272;2022-11-20T13:19:53;22.57;40.01
71514;DHT22;59335;46.652;21.272;2022-11-20T13:22:57;22.60;39.99
71514;DHT22;59335;46.652;21.272;2022-11-20T13:26:15;22.58;39.98
71514;DHT22;59335;46.652;21.272;2022-11-20T13:29:19;22.58;39.91
71514;DHT22;59335;46.652;21.272;2022-11-20T13:32:22;22.55;39.88
71514;DHT22;59335;46.652;21.272;2022-11-20T13:38:46;22.55;39.92
71514;DHT22;59335;46.652;21.272;2022-11-20T13:41:58;22.55;40.02
71514;DHT22;59335;46.652;21.272;2022-11-20T13:45:09;22.57;39.99
71514;DHT22;59335;46.652;21.272;2022-11-20T13:48:23;22.57;39.98
71514;DHT22;59335;46.652;21.272;2022-11-20T13:52:04;22.54;39.99
71514;DHT22;59335;46.652;21.272;2022-11-20T13:55:45;22.57;40.06
71514;DHT22;59335;46.652;21.272;2022-11-20T13:59:02;22.57;40.01
71514;DHT22;59335;46.652;21.272;2022-11-20T14:02:16;22.54;39.99
71514;DHT22;59335;46.652;21.272;2022-11-20T14:05:22;22.54;40.13
71514;DHT22;59335;46.652;21.272;2022-11-20T14:08:46;22.53;40.02
71514;DHT22;59335;46.652;21.272;2022-11-20T14:11:49;22.53;40.08
71514;DHT22;59335;46.652;21.272;2022-11-20T14:14:53;22.55;40.08
71514;DHT22;59335;46.652;21.272;2022-11-20T14:17:57;22.55;40.07
71514;DHT22;59335;46.652;21.272;2022-11-20T14:21:01;22.54;39.99
71514;DHT22;59335;46.652;21.272;2022-11-20T14:24:09;22.54;40.08
71514;DHT22;59335;46.652;21.272;2022-11-20T14:27:18;22.55;40.10
71514;DHT22;59335;46.652;21.272;2022-11-20T14:30:28;22.55;40.12
71514;DHT22;59335;46.652;21.272;2022-11-20T14:33:32;22.54;40.09
71514;DHT22;59335;46.652;21.272;2022-11-20T14:36:37;22.54;40.09
71514;DHT22;59335;46.652;21.272;2022-11-20T14:39:42;22.55;40.10
71514;DHT22;59335;46.652;21.272;2022-11-20T14:42:50;22.54;40.11
71514;DHT22;59335;46.652;21.272;2022-11-20T14:46:00;22.54;40.12
71514;DHT22;59335;46.652;21.272;2022-11-20T14:49:05;22.54;40.11
71514;DHT22;59335;46.652;21.272;2022-11-20T14:52:19;22.57;40.13
71514;DHT22;59335;46.652;21.272;2022-11-20T14:55:36;22.55;40.19
71514;DHT22;59335;46.652;21.272;2022-11-20T14:58:39;22.54;40.20
71514;DHT22;59335;46.652;21.272;2022-11-20T15:01:55;22.55;40.11
71514;DHT22;59335;46.652;21.272;2022-11-20T15:05:00;22.53;40.17
71514;DHT22;59335;46.652;21.272;2022-11-20T15:08:08;22.51;40.19
71514;DHT22;59335;46.652;21.272;2022-11-20T15:11:28;22.51;40.16
71514;DHT22;59335;46.652;21.272;2022-11-20T15:14:32;22.51;40.17
71514;DHT22;59335;46.652;21.272;2022-11-20T15:17:40;22.50;40.26
71514;DHT22;59335;46.652;21.272;2022-11-20T15:20:45;22.54;40.22
71514;DHT22;59335;46.652;21.272;2022-11-20T15:23:48;22.53;40.17
71514;DHT22;59335;46.652;21.272;2022-11-20T15:26:54;22.53;40.28
71514;DHT22;59335;46.652;21.272;2022-11-20T15:29:57;22.54;40.27
71514;DHT22;59335;46.652;21.272;2022-11-20T15:33:00;22.53;40.20
71514;DHT22;59335;46.652;21.272;2022-11-20T15:36:03;22.51;40.25
71514;DHT22;59335;46.652;21.272;2022-11-20T15:39:07;22.53;40.27
71514;DHT22;59335;46.652;21.272;2022-11-20T15:42:11;22.53;40.27
71514;DHT22;59335;46.652;21.272;2022-11-20T15:45:15;22.50;40.27
71514;DHT22;59335;46.652;21.272;2022-11-20T15:48:21;22.51;40.29
71514;DHT22;59335;46.652;21.272;2022-11-20T15:54:32;22.51;40.34
71514;DHT22;59335;46.652;21.272;2022-11-20T15:57:36;22.53;40.27
71514;DHT22;59335;46.652;21.272;2022-11-20T16:00:39;22.53;40.22
71514;DHT22;59335;46.652;21.272;2022-11-20T16:03:42;22.51;40.20
71514;DHT22;59335;46.652;21.272;2022-11-20T16:06:45;22.51;40.27
71514;DHT22;59335;46.652;21.272;2022-11-20T16:09:49;22.51;40.14
71514;DHT22;59335;46.652;21.272;2022-11-20T16:12:52;22.51;40.28
71514;DHT22;59335;46.652;21.272;2022-11-20T16:16:25;22.51;40.21
71514;DHT22;59335;46.652;21.272;2022-11-20T16:19:32;22.53;40.21
71514;DHT22;59335;46.652;21.272;2022-11-20T16:22:36;22.51;40.31
71514;DHT22;59335;46.652;21.272;2022-11-20T16:25:39;22.51;40.17
71514;DHT22;59335;46.652;21.272;2022-11-20T16:28:42;22.47;40.15
71514;DHT22;59335;46.652;21.272;2022-11-20T16:31:45;22.50;40.27
71514;DHT22;59335;46.652;21.272;2022-11-20T16:34:49;22.50;40.24
71514;DHT22;59335;46.652;21.272;2022-11-20T16:37:54;22.51;40.20
71514;DHT22;59335;46.652;21.272;2022-11-20T16:41:03;22.51;40.28
71514;DHT22;59335;46.652;21.272;2022-11-20T16:44:09;22.50;40.29
71514;DHT22;59335;46.652;21.272;2022-11-20T16:47:12;22.51;40.29
71514;DHT22;59335;46.652;21.272;2022-11-20T16:50:15;22.51;40.35
71514;DHT22;59335;46.652;21.272;2022-11-20T16:53:19;22.51;40.27
71514;DHT22;59335;46.652;21.272;2022-11-20T16:56:25;22.50;40.31
71514;DHT22;59335;46.652;21.272;2022-11-20T16:59:28;22.53;40.27
71514;DHT22;59335;46.652;21.272;2022-11-20T17:02:32;22.51;40.23
71514;DHT22;59335;46.652;21.272;2022-11-20T17:05:35;22.51;40.25
71514;DHT22;59335;46.652;21.272;2022-11-20T17:08:56;22.51;40.25
71514;DHT22;59335;46.652;21.272;2022-11-20T17:11:59;22.53;40.17
71514;DHT22;59335;46.652;21.272;2022-11-20T17:15:02;22.51;40.24
71514;DHT22;59335;46.652;21.272;2022-11-20T17:18:05;22.51;40.24
71514;DHT22;59335;46.652;21.272;2022-11-20T17:21:08;22.51;40.15
71514;DHT22;59335;46.652;21.272;2022-11-20T17:24:12;22.51;40.18
71514;DHT22;59335;46.652;21.272;2022-11-20T17:27:15;22.48;40.21
71514;DHT22;59335;46.652;21.272;2022-11-20T17:30:21;22.50;40.19
71514;DHT22;59335;46.652;21.272;2022-11-20T17:33:23;22.51;40.22
71514;DHT22;59335;46.652;21.272;2022-11-20T17:36:27;22.51;40.17
71514;DHT22;59335;46.652;21.272;2022-11-20T17:39:31;22.50;40.13
71514;DHT22;59335;46.652;21.272;2022-11-20T17:42:34;22.51;40.15
71514;DHT22;59335;46.652;21.272;2022-11-20T17:45:39;22.48;40.15
71514;DHT22;59335;46.652;21.272;2022-11-20T17:48:43;22.51;40.17
71514;DHT22;59335;46.652;21.272;2022-11-20T17:51:46;22.50;40.14
71514;DHT22;59335;46.652;21.272;2022-11-20T17:54:49;22.50;40.15
71514;DHT22;59335;46.652;21.272;2022-11-20T17:57:54;22.50;40.07
71514;DHT22;59335;46.652;21.272;2022-11-20T18:01:05;22.50;40.12
71514;DHT22;59335;46.652;21.272;2022-11-20T18:04:10;22.48;40.08
71514;DHT22;59335;46.652;21.272;2022-11-20T18:07:15;22.48;40.15
71514;DHT22;59335;46.652;21.272;2022-11-20T18:10:18;22.50;40.11
71514;DHT22;59335;46.652;21.272;2022-11-20T18:13:21;22.51;40.11
71514;DHT22;59335;46.652;21.272;2022-11-20T18:16:51;22.48;40.08
71514;DHT22;59335;46.652;21.272;2022-11-20T18:19:55;22.47;40.07
71514;DHT22;59335;46.652;21.272;2022-11-20T18:23:18;22.47;40.01
71514;DHT22;59335;46.652;21.272;2022-11-20T18:26:21;22.46;40.00
71514;DHT22;59335;46.652;21.272;2022-11-20T18:29:26;22.48;39.88
71514;DHT22;59335;46.652;21.272;2022-11-20T18:32:29;22.47;39.99
71514;DHT22;59335;46.652;21.272;2022-11-20T18:35:32;22.47;39.95
71514;DHT22;59335;46.652;21.272;2022-11-20T18:38:43;22.47;39.90
71514;DHT22;59335;46.652;21.272;2022-11-20T18:41:46;22.46;39.95
71514;DHT22;59335;46.652;21.272;2022-11-20T18:45:08;22.46;39.94
71514;DHT22;59335;46.652;21.272;2022-11-20T18:48:11;22.46;39.93
71514;DHT22;59335;46.652;21.272;2022-11-20T18:51:15;22.47;39.90
71514;DHT22;59335;46.652;21.272;2022-11-20T18:54:18;22.46;39.93
71514;DHT22;59335;46.652;21.272;2022-11-20T18:57:25;22.46;39.87
71514;DHT22;59335;46.652;21.272;2022-11-20T19:00:28;22.47;39.86
71514;DHT22;59335;46.652;21.272;2022-11-20T19:03:32;22.46;39.90
71514;DHT22;59335;46.652;21.272;2022-11-20T19:06:36;22.46;39.90
71514;DHT22;59335;46.652;21.272;2022-11-20T19:09:44;22.47;39.90
71514;DHT22;59335;46.652;21.272;2022-11-20T19:12:52;22.47;39.90
71514;DHT22;59335;46.652;21.272;2022-11-20T19:16:12;22.44;39.86
71514;DHT22;59335;46.652;21.272;2022-11-20T19:19:16;22.46;39.87
71514;DHT22;59335;46.652;21.272;2022-11-20T19:22:19;22.46;39.84
71514;DHT22;59335;46.652;21.272;2022-11-20T19:25:23;22.47;39.88
71514;DHT22;59335;46.652;21.272;2022-11-20T19:28:32;22.47;39.84
71514;DHT22;59335;46.652;21.272;2022-11-20T19:31:35;22.44;39.86
71514;DHT22;59335;46.652;21.272;2022-11-20T19:34:38;22.46;39.79
71514;DHT22;59335;46.652;21.272;2022-11-20T19:37:42;22.46;39.75
71514;DHT22;59335;46.652;21.272;2022-11-20T19:40:45;22.46;39.77
71514;DHT22;59335;46.652;21.272;2022-11-20T19:43:49;22.46;39.76
71514;DHT22;59335;46.652;21.272;2022-11-20T19:46:52;22.44;39.76
71514;DHT22;59335;46.652;21.272;2022-11-20T19:49:54;22.47;39.71
71514;DHT22;59335;46.652;21.272;2022-11-20T19:52:57;22.44;39.69
71514;DHT22;59335;46.652;21.272;2022-11-20T19:56:00;22.46;39.73
71514;DHT22;59335;46.652;21.272;2022-11-20T19:59:04;22.44;39.75
71514;DHT22;59335;46.652;21.272;2022-11-20T20:02:09;22.46;39.63
71514;DHT22;59335;46.652;21.272;2022-11-20T20:05:13;22.46;39.64
71514;DHT22;59335;46.652;21.272;2022-11-20T20:08:16;22.44;39.64
71514;DHT22;59335;46.652;21.272;2022-11-20T20:11:21;22.44;39.62
71514;DHT22;59335;46.652;21.272;2022-11-20T20:14:24;22.44;39.54